sensor_id;sensor_type;location;lat;lon;timestamp;temperature;humidity
38325;DHT22;24126;52.672;13.622;2024-02-21T00:00:45;12.70;80.20
38325;DHT22;24126;52.672;13.622;2024-02-21T00:03:12;12.70;80.20
38325;DHT22;24126;52.672;13.622;2024-02-21T00:05:40;12.70;80.10
38325;DHT22;24126;52.672;13.622;2024-02-21T00:08:07;12.70;80.10
38325;DHT22;24126;52.672;13.622;2024-02-21T00:10:34;12.70;80.20
38325;DHT22;24126;52.672;13.622;2024-02-21T00:13:01;12.70;80.20
38325;DHT22;24126;52.672;13.622;2024-02-21T00:15:29;12.70;80.20
38325;DHT22;24126;52.672;13.622;2024-02-21T00:17:56;12.70;80.20
38325;DHT22;24126;52.672;13.622;2024-02-21T00:20:23;12.70;80.20
38325;DHT22;24126;52.672;13.622;2024-02-21T00:22:51;12.70;80.10
38325;DHT22;24126;52.672;13.622;2024-02-21T00:25:19;12.70;80.10
38325;DHT22;24126;52.672;13.622;2024-02-21T00:27:46;12.70;80.10
38325;DHT22;24126;52.672;13.622;2024-02-21T00:30:13;12.70;80.80
38325;DHT22;24126;52.672;13.622;2024-02-21T00:32:40;12.70;80.10
38325;DHT22;24126;52.672;13.622;2024-02-21T00:35:08;12.70;80.10
38325;DHT22;24126;52.672;13.622;2024-02-21T00:37:35;12.60;80.10
38325;DHT22;24126;52.672;13.622;2024-02-21T00:40:02;12.60;80.10
38325;DHT22;24126;52.672;13.622;2024-02-21T00:42:29;12.60;80.00
38325;DHT22;24126;52.672;13.622;2024-02-21T00:44:56;12.60;80.10
38325;DHT22;24126;52.672;13.622;2024-02-21T00:47:23;12.60;80.10
38325;DHT22;24126;52.672;13.622;2024-02-21T00:49:50;12.60;80.10
38325;DHT22;24126;52.672;13.622;2024-02-21T00:52:18;12.60;80.10
38325;DHT22;24126;52.672;13.622;2024-02-21T00:54:45;12.60;80.20
38325;DHT22;24126;52.672;13.622;2024-02-21T00:57:12;12.60;80.10
38325;DHT22;24126;52.672;13.622;2024-02-21T00:59:39;12.60;80.10
38325;DHT22;24126;52.672;13.622;2024-02-21T01:02:07;12.60;80.20
38325;DHT22;24126;52.672;13.622;2024-02-21T01:04:34;12.60;80.10
38325;DHT22;24126;52.672;13.622;2024-02-21T01:07:02;12.60;80.10
38325;DHT22;24126;52.672;13.622;2024-02-21T01:09:29;12.60;80.10
38325;DHT22;24126;52.672;13.622;2024-02-21T01:11:56;12.60;80.10
38325;DHT22;24126;52.672;13.622;2024-02-21T01:14:24;12.60;80.00
38325;DHT22;24126;52.672;13.622;2024-02-21T01:16:51;12.60;80.00
38325;DHT22;24126;52.672;13.622;2024-02-21T01:19:18;12.60;80.00
38325;DHT22;24126;52.672;13.622;2024-02-21T01:21:45;12.60;80.00
38325;DHT22;24126;52.672;13.622;2024-02-21T01:24:12;12.60;80.00
38325;DHT22;24126;52.672;13.622;2024-02-21T01:26:41;12.60;80.00
38325;DHT22;24126;52.672;13.622;2024-02-21T01:29:08;12.50;79.90
38325;DHT22;24126;52.672;13.622;2024-02-21T01:31:36;12.50;79.90
38325;DHT22;24126;52.672;13.622;2024-02-21T01:34:03;12.50;79.80
38325;DHT22;24126;52.672;13.622;2024-02-21T01:36:30;12.50;80.00
38325;DHT22;24126;52.672;13.622;2024-02-21T01:38:57;12.50;80.00
38325;DHT22;24126;52.672;13.622;2024-02-21T01:41:24;12.50;80.00
38325;DHT22;24126;52.672;13.622;2024-02-21T01:43:51;12.50;80.10
38325;DHT22;24126;52.672;13.622;2024-02-21T01:46:18;12.50;80.10
38325;DHT22;24126;52.672;13.622;2024-02-21T01:48:45;12.50;80.10
38325;DHT22;24126;52.672;13.622;2024-02-21T01:51:13;12.60;80.10
38325;DHT22;24126;52.672;13.622;2024-02-21T01:53:43;12.50;80.00
38325;DHT22;24126;52.672;13.622;2024-02-21T01:56:10;12.50;80.10
38325;DHT22;24126;52.672;13.622;2024-02-21T01:58:40;12.60;80.10
38325;DHT22;24126;52.672;13.622;2024-02-21T02:01:07;12.60;80.10
38325;DHT22;24126;52.672;13.622;2024-02-21T02:03:34;12.60;80.10
38325;DHT22;24126;52.672;13.622;2024-02-21T02:06:01;12.60;80.00
38325;DHT22;24126;52.672;13.622;2024-02-21T02:08:29;12.60;80.00
38325;DHT22;24126;52.672;13.622;2024-02-21T02:10:56;12.60;79.90
38325;DHT22;24126;52.672;13.622;2024-02-21T02:13:24;12.60;79.90
38325;DHT22;24126;52.672;13.622;2024-02-21T02:15:51;12.60;79.90
38325;DHT22;24126;52.672;13.622;2024-02-21T02:18:19;12.60;79.80
38325;DHT22;24126;52.672;13.622;2024-02-21T02:20:46;12.60;79.80
38325;DHT22;24126;52.672;13.622;2024-02-21T02:23:26;12.60;79.80
38325;DHT22;24126;52.672;13.622;2024-02-21T02:25:54;12.70;79.90
38325;DHT22;24126;52.672;13.622;2024-02-21T02:28:21;12.60;79.70
38325;DHT22;24126;52.672;13.622;2024-02-21T02:30:49;12.70;79.80
38325;DHT22;24126;52.672;13.622;2024-02-21T02:33:16;12.70;79.80
38325;DHT22;24126;52.672;13.622;2024-02-21T02:35:44;12.70;79.70
38325;DHT22;24126;52.672;13.622;2024-02-21T02:38:11;12.70;79.70
38325;DHT22;24126;52.672;13.622;2024-02-21T02:40:39;12.70;79.70
38325;DHT22;24126;52.672;13.622;2024-02-21T02:43:06;12.70;79.70
38325;DHT22;24126;52.672;13.622;2024-02-21T02:45:33;12.70;79.70
38325;DHT22;24126;52.672;13.622;2024-02-21T02:48:00;12.70;79.70
38325;DHT22;24126;52.672;13.622;2024-02-21T02:50:27;12.70;79.90
38325;DHT22;24126;52.672;13.622;2024-02-21T02:52:55;12.70;79.90
38325;DHT22;24126;52.672;13.622;2024-02-21T02:55:22;12.70;80.00
38325;DHT22;24126;52.672;13.622;2024-02-21T02:57:49;12.70;80.00
38325;DHT22;24126;52.672;13.622;2024-02-21T03:00:16;12.60;80.10
38325;DHT22;24126;52.672;13.622;2024-02-21T03:02:45;12.60;80.20
38325;DHT22;24126;52.672;13.622;2024-02-21T03:07:40;12.60;80.40
38325;DHT22;24126;52.672;13.622;2024-02-21T03:10:08;12.60;80.60
38325;DHT22;24126;52.672;13.622;2024-02-21T03:12:35;12.60;80.70
38325;DHT22;24126;52.672;13.622;2024-02-21T03:15:03;12.60;80.80
38325;DHT22;24126;52.672;13.622;2024-02-21T03:17:30;12.60;80.90
38325;DHT22;24126;52.672;13.622;2024-02-21T03:19:58;12.60;81.00
38325;DHT22;24126;52.672;13.622;2024-02-21T03:22:25;12.60;81.10
38325;DHT22;24126;52.672;13.622;2024-02-21T03:24:53;12.60;81.10
38325;DHT22;24126;52.672;13.622;2024-02-21T03:27:20;12.60;81.20
38325;DHT22;24126;52.672;13.622;2024-02-21T03:29:47;12.50;81.20
38325;DHT22;24126;52.672;13.622;2024-02-21T03:32:14;12.50;81.40
38325;DHT22;24126;52.672;13.622;2024-02-21T03:34:41;12.50;81.50
38325;DHT22;24126;52.672;13.622;2024-02-21T03:37:08;12.50;81.70
38325;DHT22;24126;52.672;13.622;2024-02-21T03:39:35;12.50;81.80
38325;DHT22;24126;52.672;13.622;2024-02-21T03:42:03;12.50;81.90
38325;DHT22;24126;52.672;13.622;2024-02-21T03:44:30;12.50;82.00
38325;DHT22;24126;52.672;13.622;2024-02-21T03:47:01;12.50;82.00
38325;DHT22;24126;52.672;13.622;2024-02-21T03:49:28;12.50;82.10
38325;DHT22;24126;52.672;13.622;2024-02-21T03:51:55;12.50;82.20
38325;DHT22;24126;52.672;13.622;2024-02-21T03:54:22;12.50;82.20
38325;DHT22;24126;52.672;13.622;2024-02-21T03:56:50;12.50;82.30
38325;DHT22;24126;52.672;13.622;2024-02-21T03:59:17;12.50;82.40
38325;DHT22;24126;52.672;13.622;2024-02-21T04:01:44;12.50;82.50
38325;DHT22;24126;52.672;13.622;2024-02-21T04:04:11;12.50;82.50
38325;DHT22;24126;52.672;13.622;2024-02-21T04:06:48;12.50;82.60
38325;DHT22;24126;52.672;13.622;2024-02-21T04:09:15;12.50;82.60
38325;DHT22;24126;52.672;13.622;2024-02-21T04:11:42;12.50;82.70
38325;DHT22;24126;52.672;13.622;2024-02-21T04:14:10;12.50;82.80
38325;DHT22;24126;52.672;13.622;2024-02-21T04:16:38;12.50;82.80
38325;DHT22;24126;52.672;13.622;2024-02-21T04:19:05;12.50;82.90
38325;DHT22;24126;52.672;13.622;2024-02-21T04:21:33;12.50;82.90
38325;DHT22;24126;52.672;13.622;2024-02-21T04:24:00;12.50;83.00
38325;DHT22;24126;52.672;13.622;2024-02-21T04:26:27;12.40;83.00
38325;DHT22;24126;52.672;13.622;2024-02-21T04:28:54;12.40;83.20
38325;DHT22;24126;52.672;13.622;2024-02-21T04:31:22;12.40;83.20
38325;DHT22;24126;52.672;13.622;2024-02-21T04:33:49;12.40;83.30
38325;DHT22;24126;52.672;13.622;2024-02-21T04:36:16;12.40;83.30
38325;DHT22;24126;52.672;13.622;2024-02-21T04:38:44;12.40;83.40
38325;DHT22;24126;52.672;13.622;2024-02-21T04:41:12;12.40;83.50
38325;DHT22;24126;52.672;13.622;2024-02-21T04:43:39;12.40;83.50
38325;DHT22;24126;52.672;13.622;2024-02-21T04:46:06;12.40;83.50
38325;DHT22;24126;52.672;13.622;2024-02-21T04:48:34;12.40;83.50
38325;DHT22;24126;52.672;13.622;2024-02-21T04:51:01;12.40;83.50
38325;DHT22;24126;52.672;13.622;2024-02-21T04:53:28;12.40;83.50
38325;DHT22;24126;52.672;13.622;2024-02-21T04:55:55;12.40;83.50
38325;DHT22;24126;52.672;13.622;2024-02-21T04:58:22;12.40;83.50
38325;DHT22;24126;52.672;13.622;2024-02-21T05:00:49;12.40;83.50
38325;DHT22;24126;52.672;13.622;2024-02-21T05:03:16;12.40;83.50
38325;DHT22;24126;52.672;13.622;2024-02-21T05:05:44;12.40;83.60
38325;DHT22;24126;52.672;13.622;2024-02-21T05:08:11;12.40;83.60
38325;DHT22;24126;52.672;13.622;2024-02-21T05:10:38;12.40;83.70
38325;DHT22;24126;52.672;13.622;2024-02-21T05:13:05;12.40;83.70
38325;DHT22;24126;52.672;13.622;2024-02-21T05:15:32;12.40;83.70
38325;DHT22;24126;52.672;13.622;2024-02-21T05:18:00;12.40;83.80
38325;DHT22;24126;52.672;13.622;2024-02-21T05:20:27;12.40;83.80
38325;DHT22;24126;52.672;13.622;2024-02-21T05:22:54;12.40;83.80
38325;DHT22;24126;52.672;13.622;2024-02-21T05:25:21;12.50;83.80
38325;DHT22;24126;52.672;13.622;2024-02-21T05:27:50;12.50;83.80
38325;DHT22;24126;52.672;13.622;2024-02-21T05:30:18;12.50;83.80
38325;DHT22;24126;52.672;13.622;2024-02-21T05:32:46;12.50;83.80
38325;DHT22;24126;52.672;13.622;2024-02-21T05:35:13;12.50;83.80
38325;DHT22;24126;52.672;13.622;2024-02-21T05:37:40;12.50;83.80
38325;DHT22;24126;52.672;13.622;2024-02-21T05:40:08;12.50;83.80
38325;DHT22;24126;52.672;13.622;2024-02-21T05:42:38;12.50;83.80
38325;DHT22;24126;52.672;13.622;2024-02-21T05:45:05;12.50;83.70
38325;DHT22;24126;52.672;13.622;2024-02-21T05:47:32;12.50;83.80
38325;DHT22;24126;52.672;13.622;2024-02-21T05:49:59;12.50;83.80
38325;DHT22;24126;52.672;13.622;2024-02-21T05:52:26;12.50;83.80
38325;DHT22;24126;52.672;13.622;2024-02-21T05:54:54;12.50;83.80
38325;DHT22;24126;52.672;13.622;2024-02-21T05:57:21;12.50;83.80
38325;DHT22;24126;52.672;13.622;2024-02-21T05:59:48;12.40;83.90
38325;DHT22;24126;52.672;13.622;2024-02-21T06:02:15;12.40;83.90
38325;DHT22;24126;52.672;13.622;2024-02-21T06:04:42;12.40;83.80
38325;DHT22;24126;52.672;13.622;2024-02-21T06:07:10;12.50;83.90
38325;DHT22;24126;52.672;13.622;2024-02-21T06:09:37;12.50;83.90
38325;DHT22;24126;52.672;13.622;2024-02-21T06:12:04;12.50;83.90
38325;DHT22;24126;52.672;13.622;2024-02-21T06:14:31;12.50;83.80
38325;DHT22;24126;52.672;13.622;2024-02-21T06:16:58;12.50;83.90
38325;DHT22;24126;52.672;13.622;2024-02-21T06:19:26;12.50;84.00
38325;DHT22;24126;52.672;13.622;2024-02-21T06:21:53;12.50;84.00
38325;DHT22;24126;52.672;13.622;2024-02-21T06:24:20;12.50;83.90
38325;DHT22;24126;52.672;13.622;2024-02-21T06:26:47;12.50;83.90
38325;DHT22;24126;52.672;13.622;2024-02-21T06:29:14;12.50;83.90
38325;DHT22;24126;52.672;13.622;2024-02-21T06:31:41;12.50;83.90
38325;DHT22;24126;52.672;13.622;2024-02-21T06:34:08;12.50;83.90
38325;DHT22;24126;52.672;13.622;2024-02-21T06:36:36;12.50;83.90
38325;DHT22;24126;52.672;13.622;2024-02-21T06:39:03;12.50;83.80
38325;DHT22;24126;52.672;13.622;2024-02-21T06:41:33;12.50;83.90
38325;DHT22;24126;52.672;13.622;2024-02-21T06:44:00;12.50;83.90
38325;DHT22;24126;52.672;13.622;2024-02-21T06:46:27;12.50;83.90
38325;DHT22;24126;52.672;13.622;2024-02-21T06:48:55;12.50;83.80
38325;DHT22;24126;52.672;13.622;2024-02-21T06:51:23;12.50;83.80
38325;DHT22;24126;52.672;13.622;2024-02-21T06:53:50;12.50;83.80
38325;DHT22;24126;52.672;13.622;2024-02-21T06:56:18;12.50;83.80
38325;DHT22;24126;52.672;13.622;2024-02-21T06:58:45;12.50;83.80
38325;DHT22;24126;52.672;13.622;2024-02-21T07:01:12;12.60;83.80
38325;DHT22;24126;52.672;13.622;2024-02-21T07:03:40;12.60;83.90
38325;DHT22;24126;52.672;13.622;2024-02-21T07:06:07;12.60;83.80
38325;DHT22;24126;52.672;13.622;2024-02-21T07:08:34;12.60;83.80
38325;DHT22;24126;52.672;13.622;2024-02-21T07:11:01;12.60;83.70
38325;DHT22;24126;52.672;13.622;2024-02-21T07:13:28;12.60;83.80
38325;DHT22;24126;52.672;13.622;2024-02-21T07:15:55;12.60;83.70
38325;DHT22;24126;52.672;13.622;2024-02-21T07:18:23;12.60;83.70
38325;DHT22;24126;52.672;13.622;2024-02-21T07:20:51;12.60;83.60
38325;DHT22;24126;52.672;13.622;2024-02-21T07:23:18;12.60;83.70
38325;DHT22;24126;52.672;13.622;2024-02-21T07:25:46;12.60;83.60
38325;DHT22;24126;52.672;13.622;2024-02-21T07:28:13;12.60;83.60
38325;DHT22;24126;52.672;13.622;2024-02-21T07:30:42;12.60;83.70
38325;DHT22;24126;52.672;13.622;2024-02-21T07:33:09;12.60;83.60
38325;DHT22;24126;52.672;13.622;2024-02-21T07:35:36;12.70;84.40
38325;DHT22;24126;52.672;13.622;2024-02-21T07:38:04;12.70;83.60
38325;DHT22;24126;52.672;13.622;2024-02-21T07:40:31;12.70;83.70
38325;DHT22;24126;52.672;13.622;2024-02-21T07:42:59;12.70;83.70
38325;DHT22;24126;52.672;13.622;2024-02-21T07:45:26;12.70;83.50
38325;DHT22;24126;52.672;13.622;2024-02-21T07:47:53;12.80;83.60
38325;DHT22;24126;52.672;13.622;2024-02-21T07:50:20;12.80;83.50
38325;DHT22;24126;52.672;13.622;2024-02-21T07:52:47;12.80;83.50
38325;DHT22;24126;52.672;13.622;2024-02-21T07:55:14;12.80;83.50
38325;DHT22;24126;52.672;13.622;2024-02-21T07:57:41;12.80;83.40
38325;DHT22;24126;52.672;13.622;2024-02-21T08:00:08;12.80;83.50
38325;DHT22;24126;52.672;13.622;2024-02-21T08:02:40;12.80;83.60
38325;DHT22;24126;52.672;13.622;2024-02-21T08:05:09;12.80;83.50
38325;DHT22;24126;52.672;13.622;2024-02-21T08:07:38;12.80;84.20
38325;DHT22;24126;52.672;13.622;2024-02-21T08:10:05;12.80;83.50
38325;DHT22;24126;52.672;13.622;2024-02-21T08:12:34;12.90;83.40
38325;DHT22;24126;52.672;13.622;2024-02-21T08:15:01;12.90;83.40
38325;DHT22;24126;52.672;13.622;2024-02-21T08:17:29;12.90;83.40
38325;DHT22;24126;52.672;13.622;2024-02-21T08:19:56;12.90;83.40
38325;DHT22;24126;52.672;13.622;2024-02-21T08:22:23;12.90;83.30
38325;DHT22;24126;52.672;13.622;2024-02-21T08:24:51;13.00;83.20
38325;DHT22;24126;52.672;13.622;2024-02-21T08:27:18;13.00;83.20
38325;DHT22;24126;52.672;13.622;2024-02-21T08:29:45;13.00;83.10
38325;DHT22;24126;52.672;13.622;2024-02-21T08:32:12;13.00;83.10
38325;DHT22;24126;52.672;13.622;2024-02-21T08:34:39;13.00;83.10
38325;DHT22;24126;52.672;13.622;2024-02-21T08:37:06;13.00;83.10
38325;DHT22;24126;52.672;13.622;2024-02-21T08:39:34;13.10;83.00
38325;DHT22;24126;52.672;13.622;2024-02-21T08:42:01;13.10;82.90
38325;DHT22;24126;52.672;13.622;2024-02-21T08:44:28;13.10;82.90
38325;DHT22;24126;52.672;13.622;2024-02-21T08:46:55;13.10;82.90
38325;DHT22;24126;52.672;13.622;2024-02-21T08:49:22;13.10;83.00
38325;DHT22;24126;52.672;13.622;2024-02-21T08:51:52;13.10;82.90
38325;DHT22;24126;52.672;13.622;2024-02-21T08:54:19;13.10;82.80
38325;DHT22;24126;52.672;13.622;2024-02-21T08:56:46;13.10;82.70
38325;DHT22;24126;52.672;13.622;2024-02-21T08:59:13;13.20;82.80
38325;DHT22;24126;52.672;13.622;2024-02-21T09:01:41;13.20;82.90
38325;DHT22;24126;52.672;13.622;2024-02-21T09:04:09;13.20;82.70
38325;DHT22;24126;52.672;13.622;2024-02-21T09:06:36;13.20;82.60
38325;DHT22;24126;52.672;13.622;2024-02-21T09:09:08;13.30;82.60
38325;DHT22;24126;52.672;13.622;2024-02-21T09:11:35;13.30;82.50
38325;DHT22;24126;52.672;13.622;2024-02-21T09:14:03;13.30;82.50
38325;DHT22;24126;52.672;13.622;2024-02-21T09:16:33;13.40;82.40
38325;DHT22;24126;52.672;13.622;2024-02-21T09:19:00;13.40;82.40
38325;DHT22;24126;52.672;13.622;2024-02-21T09:21:27;13.40;82.20
38325;DHT22;24126;52.672;13.622;2024-02-21T09:23:55;13.40;82.20
38325;DHT22;24126;52.672;13.622;2024-02-21T09:26:22;13.50;82.20
38325;DHT22;24126;52.672;13.622;2024-02-21T09:28:49;13.50;82.10
38325;DHT22;24126;52.672;13.622;2024-02-21T09:31:17;13.60;82.10
38325;DHT22;24126;52.672;13.622;2024-02-21T09:33:44;13.60;82.00
38325;DHT22;24126;52.672;13.622;2024-02-21T09:36:11;13.70;81.90
38325;DHT22;24126;52.672;13.622;2024-02-21T09:38:39;13.70;81.80
38325;DHT22;24126;52.672;13.622;2024-02-21T09:41:20;13.70;81.90
38325;DHT22;24126;52.672;13.622;2024-02-21T09:43:50;13.80;81.90
38325;DHT22;24126;52.672;13.622;2024-02-21T09:46:19;13.90;81.90
38325;DHT22;24126;52.672;13.622;2024-02-21T09:49:04;14.00;81.80
38325;DHT22;24126;52.672;13.622;2024-02-21T09:51:34;14.00;81.60
38325;DHT22;24126;52.672;13.622;2024-02-21T09:54:02;14.10;81.30
38325;DHT22;24126;52.672;13.622;2024-02-21T09:56:30;14.20;81.20
38325;DHT22;24126;52.672;13.622;2024-02-21T09:58:57;14.20;81.00
38325;DHT22;24126;52.672;13.622;2024-02-21T10:01:24;14.20;80.80
38325;DHT22;24126;52.672;13.622;2024-02-21T10:03:51;14.30;80.90
38325;DHT22;24126;52.672;13.622;2024-02-21T10:06:18;14.30;80.70
38325;DHT22;24126;52.672;13.622;2024-02-21T10:08:51;14.40;80.80
38325;DHT22;24126;52.672;13.622;2024-02-21T10:11:22;14.40;81.10
38325;DHT22;24126;52.672;13.622;2024-02-21T10:13:49;14.40;80.30
38325;DHT22;24126;52.672;13.622;2024-02-21T10:16:16;14.50;80.30
38325;DHT22;24126;52.672;13.622;2024-02-21T10:18:44;14.50;80.00
38325;DHT22;24126;52.672;13.622;2024-02-21T10:21:11;14.50;80.10
38325;DHT22;24126;52.672;13.622;2024-02-21T10:23:42;14.50;79.90
38325;DHT22;24126;52.672;13.622;2024-02-21T10:26:10;14.50;79.70
38325;DHT22;24126;52.672;13.622;2024-02-21T10:28:37;14.50;79.90
38325;DHT22;24126;52.672;13.622;2024-02-21T10:31:08;14.40;79.80
38325;DHT22;24126;52.672;13.622;2024-02-21T10:33:37;14.50;79.80
38325;DHT22;24126;52.672;13.622;2024-02-21T10:36:07;14.50;79.90
38325;DHT22;24126;52.672;13.622;2024-02-21T10:38:36;14.50;80.50
38325;DHT22;24126;52.672;13.622;2024-02-21T10:41:04;14.50;79.60
38325;DHT22;24126;52.672;13.622;2024-02-21T10:43:39;14.50;79.70
38325;DHT22;24126;52.672;13.622;2024-02-21T10:46:07;14.60;79.60
38325;DHT22;24126;52.672;13.622;2024-02-21T10:48:43;14.60;79.70
38325;DHT22;24126;52.672;13.622;2024-02-21T10:56:31;14.70;79.10
38325;DHT22;24126;52.672;13.622;2024-02-21T10:59:01;14.70;79.10
38325;DHT22;24126;52.672;13.622;2024-02-21T11:01:29;14.70;79.10
38325;DHT22;24126;52.672;13.622;2024-02-21T11:03:58;14.70;79.10
38325;DHT22;24126;52.672;13.622;2024-02-21T11:06:26;14.70;79.20
38325;DHT22;24126;52.672;13.622;2024-02-21T11:09:03;14.60;79.10
38325;DHT22;24126;52.672;13.622;2024-02-21T11:11:38;14.60;79.00
38325;DHT22;24126;52.672;13.622;2024-02-21T11:16:36;14.60;79.20
38325;DHT22;24126;52.672;13.622;2024-02-21T11:19:05;14.60;79.30
38325;DHT22;24126;52.672;13.622;2024-02-21T11:21:35;14.60;79.20
38325;DHT22;24126;52.672;13.622;2024-02-21T11:24:03;14.60;79.30
38325;DHT22;24126;52.672;13.622;2024-02-21T11:26:30;14.60;79.30
38325;DHT22;24126;52.672;13.622;2024-02-21T11:29:01;14.60;79.40
38325;DHT22;24126;52.672;13.622;2024-02-21T11:31:38;14.60;79.30
38325;DHT22;24126;52.672;13.622;2024-02-21T11:34:08;14.60;79.30
38325;DHT22;24126;52.672;13.622;2024-02-21T11:36:35;14.60;79.50
38325;DHT22;24126;52.672;13.622;2024-02-21T11:39:05;14.60;80.20
38325;DHT22;24126;52.672;13.622;2024-02-21T11:41:32;14.70;79.70
38325;DHT22;24126;52.672;13.622;2024-02-21T11:43:59;14.80;79.80
38325;DHT22;24126;52.672;13.622;2024-02-21T11:46:26;14.90;79.90
38325;DHT22;24126;52.672;13.622;2024-02-21T11:48:53;15.00;80.00
38325;DHT22;24126;52.672;13.622;2024-02-21T11:51:24;15.20;79.50
38325;DHT22;24126;52.672;13.622;2024-02-21T11:53:52;15.30;79.00
38325;DHT22;24126;52.672;13.622;2024-02-21T11:56:20;15.40;78.80
38325;DHT22;24126;52.672;13.622;2024-02-21T11:58:48;15.50;78.60
38325;DHT22;24126;52.672;13.622;2024-02-21T12:01:16;15.60;79.00
38325;DHT22;24126;52.672;13.622;2024-02-21T12:03:43;15.80;78.70
38325;DHT22;24126;52.672;13.622;2024-02-21T12:06:16;16.00;78.40
38325;DHT22;24126;52.672;13.622;2024-02-21T12:08:45;16.10;78.00
38325;DHT22;24126;52.672;13.622;2024-02-21T12:11:31;16.20;77.60
38325;DHT22;24126;52.672;13.622;2024-02-21T12:13:59;16.40;76.90
38325;DHT22;24126;52.672;13.622;2024-02-21T12:16:27;16.40;76.40
38325;DHT22;24126;52.672;13.622;2024-02-21T12:18:55;16.40;76.60
38325;DHT22;24126;52.672;13.622;2024-02-21T12:21:24;16.40;76.50
38325;DHT22;24126;52.672;13.622;2024-02-21T12:23:51;16.30;76.80
38325;DHT22;24126;52.672;13.622;2024-02-21T12:26:18;16.40;76.60
38325;DHT22;24126;52.672;13.622;2024-02-21T12:28:45;16.50;76.20
38325;DHT22;24126;52.672;13.622;2024-02-21T12:31:13;16.50;76.20
38325;DHT22;24126;52.672;13.622;2024-02-21T12:33:42;16.50;76.10
38325;DHT22;24126;52.672;13.622;2024-02-21T12:36:09;16.50;75.90
38325;DHT22;24126;52.672;13.622;2024-02-21T12:38:36;16.50;75.90
38325;DHT22;24126;52.672;13.622;2024-02-21T12:41:03;16.50;76.10
38325;DHT22;24126;52.672;13.622;2024-02-21T12:43:31;16.50;76.00
38325;DHT22;24126;52.672;13.622;2024-02-21T12:45:58;16.50;75.80
38325;DHT22;24126;52.672;13.622;2024-02-21T12:48:25;16.60;75.10
38325;DHT22;24126;52.672;13.622;2024-02-21T12:50:52;16.50;74.40
38325;DHT22;24126;52.672;13.622;2024-02-21T12:53:20;16.50;74.40
38325;DHT22;24126;52.672;13.622;2024-02-21T12:55:49;16.50;74.60
38325;DHT22;24126;52.672;13.622;2024-02-21T12:58:16;16.40;74.50
38325;DHT22;24126;52.672;13.622;2024-02-21T13:00:43;16.50;74.60
38325;DHT22;24126;52.672;13.622;2024-02-21T13:03:11;16.50;74.50
38325;DHT22;24126;52.672;13.622;2024-02-21T13:05:38;16.50;74.60
38325;DHT22;24126;52.672;13.622;2024-02-21T13:08:06;16.70;74.90
38325;DHT22;24126;52.672;13.622;2024-02-21T13:10:33;16.70;74.70
38325;DHT22;24126;52.672;13.622;2024-02-21T13:13:01;16.70;74.30
38325;DHT22;24126;52.672;13.622;2024-02-21T13:15:28;16.80;74.00
38325;DHT22;24126;52.672;13.622;2024-02-21T13:17:56;16.80;73.50
38325;DHT22;24126;52.672;13.622;2024-02-21T13:20:23;16.80;73.40
38325;DHT22;24126;52.672;13.622;2024-02-21T13:22:50;16.80;73.10
38325;DHT22;24126;52.672;13.622;2024-02-21T13:25:18;16.70;73.30
38325;DHT22;24126;52.672;13.622;2024-02-21T13:27:47;16.70;73.20
38325;DHT22;24126;52.672;13.622;2024-02-21T13:30:14;16.70;73.40
38325;DHT22;24126;52.672;13.622;2024-02-21T13:32:43;16.70;73.50
38325;DHT22;24126;52.672;13.622;2024-02-21T13:35:12;16.60;73.10
38325;DHT22;24126;52.672;13.622;2024-02-21T13:37:40;16.60;73.30
38325;DHT22;24126;52.672;13.622;2024-02-21T13:40:07;16.60;73.60
38325;DHT22;24126;52.672;13.622;2024-02-21T13:42:36;16.50;73.60
38325;DHT22;24126;52.672;13.622;2024-02-21T13:45:04;16.50;73.80
38325;DHT22;24126;52.672;13.622;2024-02-21T13:47:32;16.50;73.80
38325;DHT22;24126;52.672;13.622;2024-02-21T13:49:59;16.40;73.70
38325;DHT22;24126;52.672;13.622;2024-02-21T13:52:26;16.40;73.90
38325;DHT22;24126;52.672;13.622;2024-02-21T13:54:53;16.40;73.90
38325;DHT22;24126;52.672;13.622;2024-02-21T13:57:20;16.30;73.80
38325;DHT22;24126;52.672;13.622;2024-02-21T13:59:48;16.30;73.90
38325;DHT22;24126;52.672;13.622;2024-02-21T14:02:15;16.20;73.80
38325;DHT22;24126;52.672;13.622;2024-02-21T14:04:42;16.20;73.90
38325;DHT22;24126;52.672;13.622;2024-02-21T14:07:09;16.10;74.00
38325;DHT22;24126;52.672;13.622;2024-02-21T14:09:37;16.10;74.10
38325;DHT22;24126;52.672;13.622;2024-02-21T14:12:04;16.10;74.20
38325;DHT22;24126;52.672;13.622;2024-02-21T14:14:34;16.10;74.30
38325;DHT22;24126;52.672;13.622;2024-02-21T14:17:02;16.00;74.40
38325;DHT22;24126;52.672;13.622;2024-02-21T14:19:30;16.00;74.50
38325;DHT22;24126;52.672;13.622;2024-02-21T14:21:57;16.00;74.60
38325;DHT22;24126;52.672;13.622;2024-02-21T14:24:25;16.00;74.70
38325;DHT22;24126;52.672;13.622;2024-02-21T14:26:53;15.90;74.60
38325;DHT22;24126;52.672;13.622;2024-02-21T14:29:21;15.90;74.70
38325;DHT22;24126;52.672;13.622;2024-02-21T14:31:48;15.90;74.70
38325;DHT22;24126;52.672;13.622;2024-02-21T14:34:15;15.90;74.80
38325;DHT22;24126;52.672;13.622;2024-02-21T14:36:42;15.80;74.90
38325;DHT22;24126;52.672;13.622;2024-02-21T14:39:09;15.80;74.80
38325;DHT22;24126;52.672;13.622;2024-02-21T14:41:36;15.80;75.00
38325;DHT22;24126;52.672;13.622;2024-02-21T14:44:05;15.70;75.00
38325;DHT22;24126;52.672;13.622;2024-02-21T14:46:36;15.70;75.00
38325;DHT22;24126;52.672;13.622;2024-02-21T14:49:04;15.70;75.00
38325;DHT22;24126;52.672;13.622;2024-02-21T14:51:32;15.70;75.00
38325;DHT22;24126;52.672;13.622;2024-02-21T14:54:00;15.70;75.00
38325;DHT22;24126;52.672;13.622;2024-02-21T14:56:27;15.70;74.90
38325;DHT22;24126;52.672;13.622;2024-02-21T14:58:54;15.70;75.00
38325;DHT22;24126;52.672;13.622;2024-02-21T15:01:22;15.70;75.00
38325;DHT22;24126;52.672;13.622;2024-02-21T15:03:49;15.70;75.10
38325;DHT22;24126;52.672;13.622;2024-02-21T15:06:17;15.70;75.10
38325;DHT22;24126;52.672;13.622;2024-02-21T15:08:44;15.60;74.90
38325;DHT22;24126;52.672;13.622;2024-02-21T15:11:11;15.60;74.90
38325;DHT22;24126;52.672;13.622;2024-02-21T15:13:38;15.60;74.90
38325;DHT22;24126;52.672;13.622;2024-02-21T15:16:05;15.60;75.00
38325;DHT22;24126;52.672;13.622;2024-02-21T15:18:33;15.60;75.00
38325;DHT22;24126;52.672;13.622;2024-02-21T15:21:03;15.60;75.00
38325;DHT22;24126;52.672;13.622;2024-02-21T15:23:30;15.60;75.00
38325;DHT22;24126;52.672;13.622;2024-02-21T15:25:57;15.60;75.00
38325;DHT22;24126;52.672;13.622;2024-02-21T15:28:26;15.60;74.90